sensor_id;sensor_type;location;lat;lon;timestamp;temperature;humidity
2729;DHT22;1372;47.956;7.830;2023-03-01T00:01:53;-1.80;99.90
2729;DHT22;1372;47.956;7.830;2023-03-01T00:04:22;-1.80;99.90
2729;DHT22;1372;47.956;7.830;2023-03-01T00:06:51;-1.80;99.90
2729;DHT22;1372;47.956;7.830;2023-03-01T00:09:21;-1.90;99.90
2729;DHT22;1372;47.956;7.830;2023-03-01T00:11:50;-1.80;99.90
2729;DHT22;1372;47.956;7.830;2023-03-01T00:14:19;-1.90;99.90
2729;DHT22;1372;47.956;7.830;2023-03-01T00:16:47;-1.80;99.90
2729;DHT22;1372;47.956;7.830;2023-03-01T00:19:20;-1.90;99.90
2729;DHT22;1372;47.956;7.830;2023-03-01T00:21:50;-1.90;99.90
2729;DHT22;1372;47.956;7.830;2023-03-01T00:24:18;-1.80;99.90
2729;DHT22;1372;47.956;7.830;2023-03-01T00:26:48;-1.90;99.90
2729;DHT22;1372;47.956;7.830;2023-03-01T00:29:23;-2.00;99.90
2729;DHT22;1372;47.956;7.830;2023-03-01T00:31:54;-2.00;99.90
2729;DHT22;1372;47.956;7.830;2023-03-01T00:34:23;-2.00;99.90
2729;DHT22;1372;47.956;7.830;2023-03-01T00:36:52;-2.00;99.90
2729;DHT22;1372;47.956;7.830;2023-03-01T00:39:20;-2.00;99.90
2729;DHT22;1372;47.956;7.830;2023-03-01T00:41:51;-2.00;99.90
2729;DHT22;1372;47.956;7.830;2023-03-01T00:44:19;-2.00;99.90
2729;DHT22;1372;47.956;7.830;2023-03-01T00:46:48;-2.00;99.90
2729;DHT22;1372;47.956;7.830;2023-03-01T00:49:16;-2.10;99.90
2729;DHT22;1372;47.956;7.830;2023-03-01T00:51:45;-2.00;99.90
2729;DHT22;1372;47.956;7.830;2023-03-01T00:54:14;-2.10;99.90
2729;DHT22;1372;47.956;7.830;2023-03-01T00:56:42;-2.10;99.90
2729;DHT22;1372;47.956;7.830;2023-03-01T00:59:12;-2.10;99.90
2729;DHT22;1372;47.956;7.830;2023-03-01T01:01:41;-2.20;99.90
2729;DHT22;1372;47.956;7.830;2023-03-01T01:04:12;-2.10;99.90
2729;DHT22;1372;47.956;7.830;2023-03-01T01:06:42;-2.10;99.90
2729;DHT22;1372;47.956;7.830;2023-03-01T01:09:14;-2.10;99.90
2729;DHT22;1372;47.956;7.830;2023-03-01T01:11:46;-2.00;99.90
2729;DHT22;1372;47.956;7.830;2023-03-01T01:14:17;-2.00;99.90
2729;DHT22;1372;47.956;7.830;2023-03-01T01:16:47;-2.10;99.90
2729;DHT22;1372;47.956;7.830;2023-03-01T01:19:18;-2.10;99.90
2729;DHT22;1372;47.956;7.830;2023-03-01T01:21:47;-1.90;99.90
2729;DHT22;1372;47.956;7.830;2023-03-01T01:24:16;-2.00;99.90
2729;DHT22;1372;47.956;7.830;2023-03-01T01:26:45;-2.00;99.90
2729;DHT22;1372;47.956;7.830;2023-03-01T01:29:15;-1.90;99.90
2729;DHT22;1372;47.956;7.830;2023-03-01T01:31:44;-2.00;99.90
2729;DHT22;1372;47.956;7.830;2023-03-01T01:34:14;-2.20;99.90
2729;DHT22;1372;47.956;7.830;2023-03-01T01:36:48;-2.30;99.90
2729;DHT22;1372;47.956;7.830;2023-03-01T01:39:17;-2.40;99.90
2729;DHT22;1372;47.956;7.830;2023-03-01T01:41:45;-2.30;99.90
2729;DHT22;1372;47.956;7.830;2023-03-01T01:44:20;-2.20;99.90
2729;DHT22;1372;47.956;7.830;2023-03-01T01:46:52;-2.20;99.90
2729;DHT22;1372;47.956;7.830;2023-03-01T01:49:27;-2.20;99.90
2729;DHT22;1372;47.956;7.830;2023-03-01T01:52:07;-2.30;99.90
2729;DHT22;1372;47.956;7.830;2023-03-01T01:54:42;-2.40;99.90
2729;DHT22;1372;47.956;7.830;2023-03-01T01:57:16;-2.40;99.90
2729;DHT22;1372;47.956;7.830;2023-03-01T01:59:53;-2.40;99.90
2729;DHT22;1372;47.956;7.830;2023-03-01T02:02:25;-2.40;99.90
2729;DHT22;1372;47.956;7.830;2023-03-01T02:05:03;-2.30;99.90
2729;DHT22;1372;47.956;7.830;2023-03-01T02:07:39;-2.40;99.90
2729;DHT22;1372;47.956;7.830;2023-03-01T02:10:09;-2.50;99.90
2729;DHT22;1372;47.956;7.830;2023-03-01T02:12:38;-2.50;99.90
2729;DHT22;1372;47.956;7.830;2023-03-01T02:15:10;-2.60;99.90
2729;DHT22;1372;47.956;7.830;2023-03-01T02:17:39;-2.60;99.90
2729;DHT22;1372;47.956;7.830;2023-03-01T02:20:14;-2.70;99.90
2729;DHT22;1372;47.956;7.830;2023-03-01T02:22:47;-2.60;99.90
2729;DHT22;1372;47.956;7.830;2023-03-01T02:25:27;-2.60;99.90
2729;DHT22;1372;47.956;7.830;2023-03-01T02:28:03;-2.40;99.90
2729;DHT22;1372;47.956;7.830;2023-03-01T02:30:41;-2.40;99.90
2729;DHT22;1372;47.956;7.830;2023-03-01T02:33:26;-2.60;99.90
2729;DHT22;1372;47.956;7.830;2023-03-01T02:35:55;-2.50;99.90
2729;DHT22;1372;47.956;7.830;2023-03-01T02:38:25;-2.60;99.90
2729;DHT22;1372;47.956;7.830;2023-03-01T02:40:54;-2.40;99.90
2729;DHT22;1372;47.956;7.830;2023-03-01T02:43:31;-2.40;99.90
2729;DHT22;1372;47.956;7.830;2023-03-01T02:46:03;-2.50;99.90
2729;DHT22;1372;47.956;7.830;2023-03-01T02:48:42;-2.50;99.90
2729;DHT22;1372;47.956;7.830;2023-03-01T02:51:26;-2.50;99.90
2729;DHT22;1372;47.956;7.830;2023-03-01T02:54:09;-2.50;99.90
2729;DHT22;1372;47.956;7.830;2023-03-01T02:56:44;-2.70;99.90
2729;DHT22;1372;47.956;7.830;2023-03-01T02:59:16;-2.60;99.90
2729;DHT22;1372;47.956;7.830;2023-03-01T03:01:48;-2.70;99.90
2729;DHT22;1372;47.956;7.830;2023-03-01T03:04:19;-2.60;99.90
2729;DHT22;1372;47.956;7.830;2023-03-01T03:06:50;-2.50;99.90
2729;DHT22;1372;47.956;7.830;2023-03-01T03:09:19;-2.40;99.90
2729;DHT22;1372;47.956;7.830;2023-03-01T03:11:48;-2.60;99.90
2729;DHT22;1372;47.956;7.830;2023-03-01T03:14:17;-2.70;99.90
2729;DHT22;1372;47.956;7.830;2023-03-01T03:16:49;-2.70;99.90
2729;DHT22;1372;47.956;7.830;2023-03-01T03:19:19;-2.60;99.90
2729;DHT22;1372;47.956;7.830;2023-03-01T03:21:48;-2.70;99.90
2729;DHT22;1372;47.956;7.830;2023-03-01T03:24:17;-2.60;99.90
2729;DHT22;1372;47.956;7.830;2023-03-01T03:26:46;-2.60;99.90
2729;DHT22;1372;47.956;7.830;2023-03-01T03:29:15;-2.60;99.90
2729;DHT22;1372;47.956;7.830;2023-03-01T03:31:43;-2.50;99.90
2729;DHT22;1372;47.956;7.830;2023-03-01T03:34:13;-2.50;99.90
2729;DHT22;1372;47.956;7.830;2023-03-01T03:36:45;-2.40;99.90
2729;DHT22;1372;47.956;7.830;2023-03-01T03:39:13;-2.40;99.90
2729;DHT22;1372;47.956;7.830;2023-03-01T03:41:42;-2.40;99.90
2729;DHT22;1372;47.956;7.830;2023-03-01T03:44:12;-2.30;99.90
2729;DHT22;1372;47.956;7.830;2023-03-01T03:46:40;-2.30;99.90
2729;DHT22;1372;47.956;7.830;2023-03-01T03:49:09;-2.40;99.90
2729;DHT22;1372;47.956;7.830;2023-03-01T03:51:42;-2.30;99.90
2729;DHT22;1372;47.956;7.830;2023-03-01T03:54:13;-2.20;99.90
2729;DHT22;1372;47.956;7.830;2023-03-01T03:56:42;-2.00;99.90
2729;DHT22;1372;47.956;7.830;2023-03-01T03:59:11;-2.00;99.90
2729;DHT22;1372;47.956;7.830;2023-03-01T04:01:39;-1.90;99.90
2729;DHT22;1372;47.956;7.830;2023-03-01T04:04:08;-1.80;99.90
2729;DHT22;1372;47.956;7.830;2023-03-01T04:06:37;-1.70;99.90
2729;DHT22;1372;47.956;7.830;2023-03-01T04:09:07;-1.90;99.90
2729;DHT22;1372;47.956;7.830;2023-03-01T04:11:36;-1.90;99.90
2729;DHT22;1372;47.956;7.830;2023-03-01T04:14:05;-1.90;99.90
2729;DHT22;1372;47.956;7.830;2023-03-01T04:16:34;-1.80;99.90
2729;DHT22;1372;47.956;7.830;2023-03-01T04:19:03;-1.70;99.90
2729;DHT22;1372;47.956;7.830;2023-03-01T04:21:33;-1.60;99.90
2729;DHT22;1372;47.956;7.830;2023-03-01T04:24:04;-1.50;99.90
2729;DHT22;1372;47.956;7.830;2023-03-01T04:26:35;-1.40;99.90
2729;DHT22;1372;47.956;7.830;2023-03-01T04:29:04;-1.50;99.90
2729;DHT22;1372;47.956;7.830;2023-03-01T04:31:33;-1.40;99.90
2729;DHT22;1372;47.956;7.830;2023-03-01T04:34:01;-1.40;99.90
2729;DHT22;1372;47.956;7.830;2023-03-01T04:36:30;-1.60;99.90
2729;DHT22;1372;47.956;7.830;2023-03-01T04:39:00;-1.60;99.90
2729;DHT22;1372;47.956;7.830;2023-03-01T04:41:41;-1.60;99.90
2729;DHT22;1372;47.956;7.830;2023-03-01T04:44:11;-1.60;99.90
2729;DHT22;1372;47.956;7.830;2023-03-01T04:46:39;-1.70;99.90
2729;DHT22;1372;47.956;7.830;2023-03-01T04:49:10;-1.70;99.90
2729;DHT22;1372;47.956;7.830;2023-03-01T04:51:39;-1.70;99.90
2729;DHT22;1372;47.956;7.830;2023-03-01T04:54:08;-1.60;99.90
2729;DHT22;1372;47.956;7.830;2023-03-01T04:56:37;-1.60;99.90
2729;DHT22;1372;47.956;7.830;2023-03-01T04:59:07;-1.50;99.90
2729;DHT22;1372;47.956;7.830;2023-03-01T05:01:37;-1.30;99.90
2729;DHT22;1372;47.956;7.830;2023-03-01T05:04:05;-1.30;99.90
2729;DHT22;1372;47.956;7.830;2023-03-01T05:06:34;-1.40;99.90
2729;DHT22;1372;47.956;7.830;2023-03-01T05:09:03;-1.40;99.90
2729;DHT22;1372;47.956;7.830;2023-03-01T05:11:32;-1.20;99.90
2729;DHT22;1372;47.956;7.830;2023-03-01T05:14:03;-1.20;99.90
2729;DHT22;1372;47.956;7.830;2023-03-01T05:16:35;-1.10;99.90
2729;DHT22;1372;47.956;7.830;2023-03-01T05:19:04;-1.10;99.90
2729;DHT22;1372;47.956;7.830;2023-03-01T05:21:39;-1.20;99.90
2729;DHT22;1372;47.956;7.830;2023-03-01T05:24:29;-1.20;99.90
2729;DHT22;1372;47.956;7.830;2023-03-01T05:26:59;-1.20;99.90
2729;DHT22;1372;47.956;7.830;2023-03-01T05:29:30;-1.20;99.90
2729;DHT22;1372;47.956;7.830;2023-03-01T05:32:03;-1.10;99.90
2729;DHT22;1372;47.956;7.830;2023-03-01T05:34:34;-1.00;99.90
2729;DHT22;1372;47.956;7.830;2023-03-01T05:37:04;-0.90;99.90
2729;DHT22;1372;47.956;7.830;2023-03-01T05:39:34;-0.80;99.90
2729;DHT22;1372;47.956;7.830;2023-03-01T05:42:03;-0.90;99.90
2729;DHT22;1372;47.956;7.830;2023-03-01T05:44:35;-0.90;99.90
2729;DHT22;1372;47.956;7.830;2023-03-01T05:47:05;-0.90;99.90
2729;DHT22;1372;47.956;7.830;2023-03-01T05:49:36;-1.00;99.90
2729;DHT22;1372;47.956;7.830;2023-03-01T05:52:07;-0.90;99.90
2729;DHT22;1372;47.956;7.830;2023-03-01T05:54:36;-0.80;99.90
2729;DHT22;1372;47.956;7.830;2023-03-01T05:57:05;-0.80;99.90
2729;DHT22;1372;47.956;7.830;2023-03-01T05:59:34;-0.70;99.90
2729;DHT22;1372;47.956;7.830;2023-03-01T06:02:05;-0.70;99.90
2729;DHT22;1372;47.956;7.830;2023-03-01T06:04:34;-0.70;99.90
2729;DHT22;1372;47.956;7.830;2023-03-01T06:07:02;-0.80;99.90
2729;DHT22;1372;47.956;7.830;2023-03-01T06:09:32;-0.70;99.90
2729;DHT22;1372;47.956;7.830;2023-03-01T06:12:00;-0.80;99.90
2729;DHT22;1372;47.956;7.830;2023-03-01T06:14:29;-0.70;99.90
2729;DHT22;1372;47.956;7.830;2023-03-01T06:16:58;-0.70;99.90
2729;DHT22;1372;47.956;7.830;2023-03-01T06:19:28;-0.70;99.90
2729;DHT22;1372;47.956;7.830;2023-03-01T06:21:57;-0.70;99.90
2729;DHT22;1372;47.956;7.830;2023-03-01T06:24:26;-0.70;99.90
2729;DHT22;1372;47.956;7.830;2023-03-01T06:26:56;-0.60;99.90
2729;DHT22;1372;47.956;7.830;2023-03-01T06:29:25;-0.50;99.90
2729;DHT22;1372;47.956;7.830;2023-03-01T06:31:55;-0.40;99.90
2729;DHT22;1372;47.956;7.830;2023-03-01T06:34:24;-0.40;99.90
2729;DHT22;1372;47.956;7.830;2023-03-01T06:36:54;-0.30;99.90
2729;DHT22;1372;47.956;7.830;2023-03-01T06:39:23;-0.30;99.90
2729;DHT22;1372;47.956;7.830;2023-03-01T06:42:01;-0.30;99.90
2729;DHT22;1372;47.956;7.830;2023-03-01T06:44:33;-0.30;99.90
2729;DHT22;1372;47.956;7.830;2023-03-01T06:47:02;-0.30;99.90
2729;DHT22;1372;47.956;7.830;2023-03-01T06:49:33;-0.30;99.90
2729;DHT22;1372;47.956;7.830;2023-03-01T06:52:03;-0.30;99.90
2729;DHT22;1372;47.956;7.830;2023-03-01T06:54:32;-0.30;99.90
2729;DHT22;1372;47.956;7.830;2023-03-01T06:57:03;-0.20;99.90
2729;DHT22;1372;47.956;7.830;2023-03-01T06:59:33;-0.20;99.90
2729;DHT22;1372;47.956;7.830;2023-03-01T07:02:04;-0.10;99.90
2729;DHT22;1372;47.956;7.830;2023-03-01T07:04:33;-0.10;99.90
2729;DHT22;1372;47.956;7.830;2023-03-01T07:07:03;-0.20;99.90
2729;DHT22;1372;47.956;7.830;2023-03-01T07:09:33;-0.20;99.90
2729;DHT22;1372;47.956;7.830;2023-03-01T07:12:02;-0.30;99.90
2729;DHT22;1372;47.956;7.830;2023-03-01T07:14:32;-0.20;99.90
2729;DHT22;1372;47.956;7.830;2023-03-01T07:17:00;-0.20;99.90
2729;DHT22;1372;47.956;7.830;2023-03-01T07:19:29;-0.20;99.90
2729;DHT22;1372;47.956;7.830;2023-03-01T07:21:58;-0.10;99.90
2729;DHT22;1372;47.956;7.830;2023-03-01T07:24:29;-0.10;99.90
2729;DHT22;1372;47.956;7.830;2023-03-01T07:26:57;0.00;99.90
2729;DHT22;1372;47.956;7.830;2023-03-01T07:29:26;0.00;99.90
2729;DHT22;1372;47.956;7.830;2023-03-01T07:31:58;0.00;99.90
2729;DHT22;1372;47.956;7.830;2023-03-01T07:34:27;0.00;99.90
2729;DHT22;1372;47.956;7.830;2023-03-01T07:36:56;0.10;99.90
2729;DHT22;1372;47.956;7.830;2023-03-01T07:39:25;0.10;99.90
2729;DHT22;1372;47.956;7.830;2023-03-01T07:41:55;0.10;99.90
2729;DHT22;1372;47.956;7.830;2023-03-01T07:44:30;0.10;99.90
2729;DHT22;1372;47.956;7.830;2023-03-01T07:47:04;0.10;99.90
2729;DHT22;1372;47.956;7.830;2023-03-01T07:49:34;0.20;99.90
2729;DHT22;1372;47.956;7.830;2023-03-01T07:52:03;0.20;99.90
2729;DHT22;1372;47.956;7.830;2023-03-01T07:54:33;0.30;99.90
2729;DHT22;1372;47.956;7.830;2023-03-01T07:57:03;0.30;99.90
2729;DHT22;1372;47.956;7.830;2023-03-01T07:59:32;0.30;99.90
2729;DHT22;1372;47.956;7.830;2023-03-01T08:02:01;0.30;99.90
2729;DHT22;1372;47.956;7.830;2023-03-01T08:04:31;0.40;99.90
2729;DHT22;1372;47.956;7.830;2023-03-01T08:07:00;0.40;99.90
2729;DHT22;1372;47.956;7.830;2023-03-01T08:09:29;0.40;99.90
2729;DHT22;1372;47.956;7.830;2023-03-01T08:11:58;0.50;99.90
2729;DHT22;1372;47.956;7.830;2023-03-01T08:14:29;0.50;99.90
2729;DHT22;1372;47.956;7.830;2023-03-01T08:16:58;0.60;99.90
2729;DHT22;1372;47.956;7.830;2023-03-01T08:19:30;0.70;99.90
2729;DHT22;1372;47.956;7.830;2023-03-01T08:22:00;0.70;99.90
2729;DHT22;1372;47.956;7.830;2023-03-01T08:24:29;0.70;99.90
2729;DHT22;1372;47.956;7.830;2023-03-01T08:27:04;0.70;99.90
2729;DHT22;1372;47.956;7.830;2023-03-01T08:29:34;0.70;99.90
2729;DHT22;1372;47.956;7.830;2023-03-01T08:32:06;0.80;99.90
2729;DHT22;1372;47.956;7.830;2023-03-01T08:34:36;0.70;99.90
2729;DHT22;1372;47.956;7.830;2023-03-01T08:37:07;0.70;99.90
2729;DHT22;1372;47.956;7.830;2023-03-01T08:39:36;0.80;99.90
2729;DHT22;1372;47.956;7.830;2023-03-01T08:42:05;0.70;99.90
2729;DHT22;1372;47.956;7.830;2023-03-01T08:44:38;0.70;99.90
2729;DHT22;1372;47.956;7.830;2023-03-01T08:47:09;0.50;99.90
2729;DHT22;1372;47.956;7.830;2023-03-01T08:49:38;0.50;99.90
2729;DHT22;1372;47.956;7.830;2023-03-01T08:52:09;0.70;99.90
2729;DHT22;1372;47.956;7.830;2023-03-01T08:54:41;0.90;99.90
2729;DHT22;1372;47.956;7.830;2023-03-01T08:57:10;0.90;99.90
2729;DHT22;1372;47.956;7.830;2023-03-01T08:59:41;0.90;99.90
2729;DHT22;1372;47.956;7.830;2023-03-01T09:02:14;1.00;99.90
2729;DHT22;1372;47.956;7.830;2023-03-01T09:04:46;0.90;99.90
2729;DHT22;1372;47.956;7.830;2023-03-01T09:07:15;1.00;99.90
2729;DHT22;1372;47.956;7.830;2023-03-01T09:09:44;1.00;99.90
2729;DHT22;1372;47.956;7.830;2023-03-01T09:12:12;0.90;99.90
2729;DHT22;1372;47.956;7.830;2023-03-01T09:14:43;1.00;99.90
2729;DHT22;1372;47.956;7.830;2023-03-01T09:17:12;1.10;99.90
2729;DHT22;1372;47.956;7.830;2023-03-01T09:19:41;1.10;99.90
2729;DHT22;1372;47.956;7.830;2023-03-01T09:22:13;1.10;99.90
2729;DHT22;1372;47.956;7.830;2023-03-01T09:24:42;1.30;99.90
2729;DHT22;1372;47.956;7.830;2023-03-01T09:27:10;1.40;99.90
2729;DHT22;1372;47.956;7.830;2023-03-01T09:29:44;1.60;99.90
2729;DHT22;1372;47.956;7.830;2023-03-01T09:32:16;1.60;99.90
2729;DHT22;1372;47.956;7.830;2023-03-01T09:34:45;1.60;99.90
2729;DHT22;1372;47.956;7.830;2023-03-01T09:37:33;1.70;99.90
2729;DHT22;1372;47.956;7.830;2023-03-01T09:40:11;1.80;99.90
2729;DHT22;1372;47.956;7.830;2023-03-01T09:42:51;1.80;99.90
2729;DHT22;1372;47.956;7.830;2023-03-01T09:45:33;1.80;99.90
2729;DHT22;1372;47.956;7.830;2023-03-01T09:48:08;2.00;99.90
2729;DHT22;1372;47.956;7.830;2023-03-01T09:50:43;2.00;99.90
2729;DHT22;1372;47.956;7.830;2023-03-01T09:53:16;2.10;99.90
2729;DHT22;1372;47.956;7.830;2023-03-01T09:55:53;2.10;99.90
2729;DHT22;1372;47.956;7.830;2023-03-01T09:58:36;1.90;99.90
2729;DHT22;1372;47.956;7.830;2023-03-01T10:01:27;1.90;99.90
2729;DHT22;1372;47.956;7.830;2023-03-01T10:04:27;1.80;99.90
2729;DHT22;1372;47.956;7.830;2023-03-01T10:07:18;1.90;99.90
2729;DHT22;1372;47.956;7.830;2023-03-01T10:09:51;2.10;99.90
2729;DHT22;1372;47.956;7.830;2023-03-01T10:12:23;2.10;99.90
2729;DHT22;1372;47.956;7.830;2023-03-01T10:14:59;2.20;99.90
2729;DHT22;1372;47.956;7.830;2023-03-01T10:17:37;2.40;99.90
2729;DHT22;1372;47.956;7.830;2023-03-01T10:20:17;2.50;99.90
2729;DHT22;1372;47.956;7.830;2023-03-01T10:22:48;2.50;99.90
2729;DHT22;1372;47.956;7.830;2023-03-01T10:25:36;2.50;99.90
2729;DHT22;1372;47.956;7.830;2023-03-01T10:28:16;2.50;99.90
2729;DHT22;1372;47.956;7.830;2023-03-01T10:30:46;2.50;99.90
2729;DHT22;1372;47.956;7.830;2023-03-01T10:33:18;2.50;99.90
2729;DHT22;1372;47.956;7.830;2023-03-01T10:35:52;2.40;99.90
2729;DHT22;1372;47.956;7.830;2023-03-01T10:38:21;2.60;99.90
2729;DHT22;1372;47.956;7.830;2023-03-01T10:40:53;2.60;99.90
2729;DHT22;1372;47.956;7.830;2023-03-01T10:43:24;2.60;99.90
2729;DHT22;1372;47.956;7.830;2023-03-01T10:45:54;2.70;99.90
2729;DHT22;1372;47.956;7.830;2023-03-01T10:48:26;3.00;99.90
2729;DHT22;1372;47.956;7.830;2023-03-01T10:51:06;3.10;99.90
2729;DHT22;1372;47.956;7.830;2023-03-01T10:53:41;3.20;99.90
2729;DHT22;1372;47.956;7.830;2023-03-01T10:56:12;3.00;99.90
2729;DHT22;1372;47.956;7.830;2023-03-01T10:58:58;3.00;99.90
2729;DHT22;1372;47.956;7.830;2023-03-01T11:01:32;3.20;99.90
2729;DHT22;1372;47.956;7.830;2023-03-01T11:04:12;3.30;99.90
2729;DHT22;1372;47.956;7.830;2023-03-01T11:06:43;3.40;99.90
2729;DHT22;1372;47.956;7.830;2023-03-01T11:09:26;3.40;99.90
2729;DHT22;1372;47.956;7.830;2023-03-01T11:12:12;3.50;99.90
2729;DHT22;1372;47.956;7.830;2023-03-01T11:14:47;3.50;99.90
2729;DHT22;1372;47.956;7.830;2023-03-01T11:17:20;3.60;99.90
2729;DHT22;1372;47.956;7.830;2023-03-01T11:20:04;3.60;99.90
2729;DHT22;1372;47.956;7.830;2023-03-01T11:22:45;3.70;99.90
2729;DHT22;1372;47.956;7.830;2023-03-01T11:25:18;3.90;99.90
2729;DHT22;1372;47.956;7.830;2023-03-01T11:27:53;4.10;99.90
2729;DHT22;1372;47.956;7.830;2023-03-01T11:30:26;4.10;99.90
2729;DHT22;1372;47.956;7.830;2023-03-01T11:33:13;4.20;99.90
2729;DHT22;1372;47.956;7.830;2023-03-01T11:35:55;4.10;99.90
2729;DHT22;1372;47.956;7.830;2023-03-01T11:38:32;4.30;99.90
2729;DHT22;1372;47.956;7.830;2023-03-01T11:41:08;4.30;99.90
2729;DHT22;1372;47.956;7.830;2023-03-01T11:43:47;4.30;99.90
2729;DHT22;1372;47.956;7.830;2023-03-01T11:46:42;4.40;99.90
2729;DHT22;1372;47.956;7.830;2023-03-01T11:52:46;4.30;99.90
2729;DHT22;1372;47.956;7.830;2023-03-01T11:55:29;4.30;99.90
2729;DHT22;1372;47.956;7.830;2023-03-01T12:01:34;4.70;99.90
2729;DHT22;1372;47.956;7.830;2023-03-01T12:04:23;4.80;99.90
2729;DHT22;1372;47.956;7.830;2023-03-01T12:07:21;4.80;99.90
2729;DHT22;1372;47.956;7.830;2023-03-01T12:10:22;5.00;99.90
2729;DHT22;1372;47.956;7.830;2023-03-01T12:13:09;5.00;99.90
2729;DHT22;1372;47.956;7.830;2023-03-01T12:16:13;5.20;99.90
2729;DHT22;1372;47.956;7.830;2023-03-01T12:19:15;5.30;99.90
2729;DHT22;1372;47.956;7.830;2023-03-01T12:22:06;5.30;99.90
2729;DHT22;1372;47.956;7.830;2023-03-01T12:24:58;5.30;99.90
2729;DHT22;1372;47.956;7.830;2023-03-01T12:28:21;5.60;99.90
2729;DHT22;1372;47.956;7.830;2023-03-01T12:31:20;5.70;99.90
2729;DHT22;1372;47.956;7.830;2023-03-01T12:34:11;5.80;99.90
2729;DHT22;1372;47.956;7.830;2023-03-01T12:37:00;5.90;99.90
2729;DHT22;1372;47.956;7.830;2023-03-01T12:39:47;6.10;99.90
2729;DHT22;1372;47.956;7.830;2023-03-01T12:42:28;6.10;99.90
2729;DHT22;1372;47.956;7.830;2023-03-01T12:45:29;6.20;99.90
2729;DHT22;1372;47.956;7.830;2023-03-01T12:48:16;6.40;99.90
2729;DHT22;1372;47.956;7.830;2023-03-01T12:50:53;6.40;99.90
2729;DHT22;1372;47.956;7.830;2023-03-01T12:53:25;6.50;99.90
2729;DHT22;1372;47.956;7.830;2023-03-01T12:56:00;6.50;99.90
2729;DHT22;1372;47.956;7.830;2023-03-01T12:58:38;6.40;99.90
2729;DHT22;1372;47.956;7.830;2023-03-01T13:01:26;6.50;99.90
2729;DHT22;1372;47.956;7.830;2023-03-01T13:04:18;6.60;99.90
2729;DHT22;1372;47.956;7.830;2023-03-01T13:07:04;6.60;99.90
2729;DHT22;1372;47.956;7.830;2023-03-01T13:09:46;6.50;99.90
2729;DHT22;1372;47.956;7.830;2023-03-01T13:12:50;6.40;99.90
2729;DHT22;1372;47.956;7.830;2023-03-01T13:15:32;6.20;99.90
2729;DHT22;1372;47.956;7.830;2023-03-01T13:18:28;6.30;99.90
2729;DHT22;1372;47.956;7.830;2023-03-01T13:21:02;6.30;99.90
2729;DHT22;1372;47.956;7.830;2023-03-01T13:23:37;6.40;99.90
2729;DHT22;1372;47.956;7.830;2023-03-01T13:26:14;6.50;99.90
2729;DHT22;1372;47.956;7.830;2023-03-01T13:28:55;6.50;99.90
2729;DHT22;1372;47.956;7.830;2023-03-01T13:31:59;6.70;99.90
2729;DHT22;1372;47.956;7.830;2023-03-01T13:34:47;6.80;99.90
2729;DHT22;1372;47.956;7.830;2023-03-01T13:37:33;6.90;99.90
2729;DHT22;1372;47.956;7.830;2023-03-01T13:43:32;7.30;99.90
2729;DHT22;1372;47.956;7.830;2023-03-01T13:46:11;7.10;99.90
2729;DHT22;1372;47.956;7.830;2023-03-01T13:48:47;7.20;99.90
2729;DHT22;1372;47.956;7.830;2023-03-01T13:51:22;7.40;99.90
2729;DHT22;1372;47.956;7.830;2023-03-01T13:53:54;7.60;99.90
2729;DHT22;1372;47.956;7.830;2023-03-01T13:56:26;7.70;99.90
2729;DHT22;1372;47.956;7.830;2023-03-01T13:59:01;7.80;99.90
2729;DHT22;1372;47.956;7.830;2023-03-01T14:01:33;7.90;99.90
2729;DHT22;1372;47.956;7.830;2023-03-01T14:04:17;8.00;99.90
2729;DHT22;1372;47.956;7.830;2023-03-01T14:06:48;8.00;99.90
2729;DHT22;1372;47.956;7.830;2023-03-01T14:09:20;8.00;99.90
2729;DHT22;1372;47.956;7.830;2023-03-01T14:12:16;8.10;99.90
2729;DHT22;1372;47.956;7.830;2023-03-01T14:14:58;8.10;99.90
2729;DHT22;1372;47.956;7.830;2023-03-01T14:17:48;8.10;99.90
2729;DHT22;1372;47.956;7.830;2023-03-01T14:20:23;8.10;99.90
2729;DHT22;1372;47.956;7.830;2023-03-01T14:22:55;8.00;99.90
2729;DHT22;1372;47.956;7.830;2023-03-01T14:25:28;8.00;99.90
2729;DHT22;1372;47.956;7.830;2023-03-01T14:28:02;8.10;99.90
2729;DHT22;1372;47.956;7.830;2023-03-01T14:30:38;8.00;99.90
2729;DHT22;1372;47.956;7.830;2023-03-01T14:33:22;8.10;99.90
2729;DHT22;1372;47.956;7.830;2023-03-01T14:35:57;8.20;99.90
2729;DHT22;1372;47.956;7.830;2023-03-01T14:38:32;8.20;99.90
2729;DHT22;1372;47.956;7.830;2023-03-01T14:41:06;8.30;99.90
2729;DHT22;1372;47.956;7.830;2023-03-01T14:43:37;8.30;99.90
2729;DHT22;1372;47.956;7.830;2023-03-01T14:46:19;8.30;99.90
2729;DHT22;1372;47.956;7.830;2023-03-01T14:48:51;8.30;99.90
2729;DHT22;1372;47.956;7.830;2023-03-01T14:51:20;8.40;99.90
2729;DHT22;1372;47.956;7.830;2023-03-01T14:53:50;8.30;99.90
2729;DHT22;1372;47.956;7.830;2023-03-01T14:56:19;8.40;99.90
2729;DHT22;1372;47.956;7.830;2023-03-01T14:58:51;8.50;99.90
2729;DHT22;1372;47.956;7.830;2023-03-01T15:01:22;8.50;99.90
2729;DHT22;1372;47.956;7.830;2023-03-01T15:03:51;8.40;99.90
2729;DHT22;1372;47.956;7.830;2023-03-01T15:06:22;8.20;99.90
2729;DHT22;1372;47.956;7.830;2023-03-01T15:08:53;8.20;99.90
2729;DHT22;1372;47.956;7.830;2023-03-01T15:11:27;8.10;99.90
2729;DHT22;1372;47.956;7.830;2023-03-01T15:13:58;7.90;99.90
2729;DHT22;1372;47.956;7.830;2023-03-01T15:16:30;7.80;99.90
2729;DHT22;1372;47.956;7.830;2023-03-01T15:19:01;7.60;99.90
2729;DHT22;1372;47.956;7.830;2023-03-01T15:21:34;7.50;99.90
2729;DHT22;1372;47.956;7.830;2023-03-01T15:24:07;7.50;99.90
2729;DHT22;1372;47.956;7.830;2023-03-01T15:26:53;7.70;99.90
2729;DHT22;1372;47.956;7.830;2023-03-01T15:29:26;7.70;99.90
2729;DHT22;1372;47.956;7.830;2023-03-01T15:32:00;7.80;99.90
2729;DHT22;1372;47.956;7.830;2023-03-01T15:34:32;7.70;99.90
2729;DHT22;1372;47.956;7.830;2023-03-01T15:37:05;7.50;99.90
2729;DHT22;1372;47.956;7.830;2023-03-01T15:39:39;7.30;99.90
2729;DHT22;1372;47.956;7.830;2023-03-01T15:42:12;7.20;99.90
2729;DHT22;1372;47.956;7.830;2023-03-01T15:44:43;7.20;99.90
2729;DHT22;1372;47.956;7.830;2023-03-01T15:47:27;7.20;99.90
2729;DHT22;1372;47.956;7.830;2023-03-01T15:50:00;7.00;99.90
2729;DHT22;1372;47.956;7.830;2023-03-01T15:52:33;6.80;99.90
2729;DHT22;1372;47.956;7.830;2023-03-01T15:55:15;6.80;99.90
2729;DHT22;1372;47.956;7.830;2023-03-01T15:57:45;7.00;99.90
2729;DHT22;1372;47.956;7.830;2023-03-01T16:00:15;7.20;99.90
2729;DHT22;1372;47.956;7.830;2023-03-01T16:02:53;7.40;99.90
2729;DHT22;1372;47.956;7.830;2023-03-01T16:05:26;7.40;99.90
2729;DHT22;1372;47.956;7.830;2023-03-01T16:07:58;7.50;99.90
2729;DHT22;1372;47.956;7.830;2023-03-01T16:10:28;7.50;99.90
2729;DHT22;1372;47.956;7.830;2023-03-01T16:12:57;7.40;99.90
2729;DHT22;1372;47.956;7.830;2023-03-01T16:15:28;7.30;99.90
2729;DHT22;1372;47.956;7.830;2023-03-01T16:18:01;7.10;99.90
2729;DHT22;1372;47.956;7.830;2023-03-01T16:20:30;7.00;99.90
2729;DHT22;1372;47.956;7.830;2023-03-01T16:23:01;6.90;99.90
2729;DHT22;1372;47.956;7.830;2023-03-01T16:25:33;6.70;99.90
2729;DHT22;1372;47.956;7.830;2023-03-01T16:28:05;6.70;99.90
2729;DHT22;1372;47.956;7.830;2023-03-01T16:30:37;6.70;99.90
2729;DHT22;1372;47.956;7.830;2023-03-01T16:33:08;6.60;99.90
2729;DHT22;1372;47.956;7.830;2023-03-01T16:35:55;6.60;99.90
2729;DHT22;1372;47.956;7.830;2023-03-01T16:38:25;6.30;99.90
2729;DHT22;1372;47.956;7.830;2023-03-01T16:40:54;6.20;99.90
2729;DHT22;1372;47.956;7.830;2023-03-01T16:43:23;6.30;99.90
2729;DHT22;1372;47.956;7.830;2023-03-01T16:45:53;6.30;99.90
2729;DHT22;1372;47.956;7.830;2023-03-01T16:48:23;6.10;99.90
2729;DHT22;1372;47.956;7.830;2023-03-01T16:50:57;5.90;99.90
2729;DHT22;1372;47.956;7.830;2023-03-01T16:53:27;5.90;99.90
2729;DHT22;1372;47.956;7.830;2023-03-01T16:55:57;5.80;99.90
2729;DHT22;1372;47.956;7.830;2023-03-01T16:58:26;5.70;99.90
2729;DHT22;1372;47.956;7.830;2023-03-01T17:00:55;5.70;99.90
2729;DHT22;1372;47.956;7.830;2023-03-01T17:03:26;5.40;99.90